Airfield :
LOGIN :

Register | Disclaimer

   EN    FR    IT 

 










Legend :    VFR   Marginal VFR   IFR   Intensive IFR   Very Intensive IFR
Visi :
Ceiling :
>= 8 km
>= 3000ft
5 to 8 km
1000 to 3000 ft
1500m to 5 km
500 to 1000 ft
800 to 1500m
200 to 500 ft
< 800m
< 200 ft
Symbols :   Thunderstorms  Fog  Heavy snow  Heavy precipitations  Wind > 20 kt
SIGMETs :     Misc.  Thunderstorms  Icing  Turbulence  Mountain Waves  Volcanic Ashes






- Airport Elevation : 308 ft
- IATA code : POZ


EPPO - Poznan-Lawica

CURRENT METAR :
  • 291230Z 36003KT 300V080 9999 SCT043 25/12 Q1017

EXPIRED METARs :
  • 291200Z 06004KT 360V110 9999 SCT042 25/13 Q1017
  • 291130Z 04004KT CAVOK 23/13 Q1018
  • 291100Z 35004KT CAVOK 22/14 Q1018
  • 291030Z 36005KT 9999 FEW048 21/14 Q1018
  • 291000Z 03003KT 9999 SCT032 20/14 Q1018

TAF TAF EPPO
Valid from the 29 at 12:00 until the 30 at 12:00 UTC


291130Z 2912/3012 06005KT CAVOK
TEMPO 2912/2915 SHRA BKN014 BKN020CB
TEMPO 2920/3005 4000 SHRA BKN006 BKN020CB
PROB30
TEMPO 2922/3003 VRB15G25KT 2000 TSRA
TEMPO 3005/3009 BKN004



MET'MAP, your aeronautical weather chart ! - Copyright ORBIFLY December 2007 - Disclaimer

ORBIFLY MET'MAP TEAM :

Programming & Development : Alexandra Zaïnal
Original concept : Baudouin d'Aumeries
Technical & hardware support : Manuel Goepfert
Assistance : Marc-Olivier Méhu




SOURCES & CREDITS :

   NOAA